sensor_id;sensor_type;location;lat;lon;timestamp;temperature;humidity
18456;DHT22;9357;49.900;8.208;2024-01-07T00:00:01;5.40;99.90
18456;DHT22;9357;49.900;8.208;2024-01-07T00:01:34;5.40;99.90
18456;DHT22;9357;49.900;8.208;2024-01-07T00:03:06;5.40;99.90
18456;DHT22;9357;49.900;8.208;2024-01-07T00:04:41;5.40;99.90
18456;DHT22;9357;49.900;8.208;2024-01-07T00:06:13;5.40;99.90
18456;DHT22;9357;49.900;8.208;2024-01-07T00:07:45;5.40;99.90
18456;DHT22;9357;49.900;8.208;2024-01-07T00:09:17;5.40;99.90
18456;DHT22;9357;49.900;8.208;2024-01-07T00:10:50;5.40;99.90
18456;DHT22;9357;49.900;8.208;2024-01-07T00:12:24;5.40;99.90
18456;DHT22;9357;49.900;8.208;2024-01-07T00:13:57;5.40;99.90
18456;DHT22;9357;49.900;8.208;2024-01-07T00:15:29;5.40;99.90
18456;DHT22;9357;49.900;8.208;2024-01-07T00:17:02;5.40;99.90
18456;DHT22;9357;49.900;8.208;2024-01-07T00:18:33;5.30;99.90
18456;DHT22;9357;49.900;8.208;2024-01-07T00:20:08;5.40;99.90
18456;DHT22;9357;49.900;8.208;2024-01-07T00:21:42;5.40;99.90
18456;DHT22;9357;49.900;8.208;2024-01-07T00:23:14;5.40;99.90
18456;DHT22;9357;49.900;8.208;2024-01-07T00:24:46;5.40;99.90
18456;DHT22;9357;49.900;8.208;2024-01-07T00:26:19;5.40;99.90
18456;DHT22;9357;49.900;8.208;2024-01-07T00:27:51;5.40;99.90
18456;DHT22;9357;49.900;8.208;2024-01-07T00:29:27;5.40;99.90
18456;DHT22;9357;49.900;8.208;2024-01-07T00:30:59;5.40;99.90
18456;DHT22;9357;49.900;8.208;2024-01-07T00:32:31;5.40;99.90
18456;DHT22;9357;49.900;8.208;2024-01-07T00:34:04;5.30;99.90
18456;DHT22;9357;49.900;8.208;2024-01-07T00:35:37;5.30;99.90
18456;DHT22;9357;49.900;8.208;2024-01-07T00:37:10;5.30;99.90
18456;DHT22;9357;49.900;8.208;2024-01-07T00:38:42;5.30;99.90
18456;DHT22;9357;49.900;8.208;2024-01-07T00:40:15;5.30;99.90
18456;DHT22;9357;49.900;8.208;2024-01-07T00:41:47;5.30;99.90
18456;DHT22;9357;49.900;8.208;2024-01-07T00:43:20;5.20;99.90
18456;DHT22;9357;49.900;8.208;2024-01-07T00:44:52;5.20;99.90
18456;DHT22;9357;49.900;8.208;2024-01-07T00:46:24;5.20;99.90
18456;DHT22;9357;49.900;8.208;2024-01-07T00:47:56;5.20;99.90
18456;DHT22;9357;49.900;8.208;2024-01-07T00:49:29;5.20;99.90
18456;DHT22;9357;49.900;8.208;2024-01-07T00:51:04;5.20;99.90
18456;DHT22;9357;49.900;8.208;2024-01-07T00:52:36;5.20;99.90
18456;DHT22;9357;49.900;8.208;2024-01-07T00:54:08;5.20;99.90
18456;DHT22;9357;49.900;8.208;2024-01-07T00:55:41;5.20;99.90
18456;DHT22;9357;49.900;8.208;2024-01-07T00:57:13;5.10;99.90
18456;DHT22;9357;49.900;8.208;2024-01-07T00:58:46;5.20;99.90
18456;DHT22;9357;49.900;8.208;2024-01-07T01:00:18;5.20;99.90
18456;DHT22;9357;49.900;8.208;2024-01-07T01:01:51;5.10;99.90
18456;DHT22;9357;49.900;8.208;2024-01-07T01:03:23;5.20;99.90
18456;DHT22;9357;49.900;8.208;2024-01-07T01:04:56;5.20;99.90
18456;DHT22;9357;49.900;8.208;2024-01-07T01:06:29;5.20;99.90
18456;DHT22;9357;49.900;8.208;2024-01-07T01:08:02;5.20;99.90
18456;DHT22;9357;49.900;8.208;2024-01-07T01:09:34;5.20;99.90
18456;DHT22;9357;49.900;8.208;2024-01-07T01:11:09;5.20;99.90
18456;DHT22;9357;49.900;8.208;2024-01-07T01:12:42;5.20;99.90
18456;DHT22;9357;49.900;8.208;2024-01-07T01:14:13;5.20;99.90
18456;DHT22;9357;49.900;8.208;2024-01-07T01:15:46;5.30;99.90
18456;DHT22;9357;49.900;8.208;2024-01-07T01:17:18;5.20;99.90
18456;DHT22;9357;49.900;8.208;2024-01-07T01:18:51;5.20;99.90
18456;DHT22;9357;49.900;8.208;2024-01-07T01:20:24;5.20;99.90
18456;DHT22;9357;49.900;8.208;2024-01-07T01:21:57;5.20;99.90
18456;DHT22;9357;49.900;8.208;2024-01-07T01:23:29;5.20;99.90
18456;DHT22;9357;49.900;8.208;2024-01-07T01:25:01;5.20;99.90
18456;DHT22;9357;49.900;8.208;2024-01-07T01:26:35;5.20;99.90
18456;DHT22;9357;49.900;8.208;2024-01-07T01:28:06;5.30;99.90
18456;DHT22;9357;49.900;8.208;2024-01-07T01:29:39;5.30;99.90
18456;DHT22;9357;49.900;8.208;2024-01-07T01:31:13;5.30;99.90
18456;DHT22;9357;49.900;8.208;2024-01-07T01:32:47;5.20;99.90
18456;DHT22;9357;49.900;8.208;2024-01-07T01:34:18;5.30;99.90
18456;DHT22;9357;49.900;8.208;2024-01-07T01:35:51;5.20;99.90
18456;DHT22;9357;49.900;8.208;2024-01-07T01:37:24;5.20;99.90
18456;DHT22;9357;49.900;8.208;2024-01-07T01:38:57;5.20;99.90
18456;DHT22;9357;49.900;8.208;2024-01-07T01:40:29;5.20;99.90
18456;DHT22;9357;49.900;8.208;2024-01-07T01:42:03;5.20;99.90
18456;DHT22;9357;49.900;8.208;2024-01-07T01:43:35;5.20;99.90
18456;DHT22;9357;49.900;8.208;2024-01-07T01:45:08;5.20;99.90
18456;DHT22;9357;49.900;8.208;2024-01-07T01:46:40;5.30;99.90
18456;DHT22;9357;49.900;8.208;2024-01-07T01:48:13;5.30;99.90
18456;DHT22;9357;49.900;8.208;2024-01-07T01:49:45;5.20;99.90
18456;DHT22;9357;49.900;8.208;2024-01-07T01:51:19;5.20;99.90
18456;DHT22;9357;49.900;8.208;2024-01-07T01:52:52;5.20;99.90
18456;DHT22;9357;49.900;8.208;2024-01-07T01:54:25;5.20;99.90
18456;DHT22;9357;49.900;8.208;2024-01-07T01:55:57;5.20;99.90
18456;DHT22;9357;49.900;8.208;2024-01-07T01:57:33;5.20;99.90
18456;DHT22;9357;49.900;8.208;2024-01-07T01:59:05;5.20;99.90
18456;DHT22;9357;49.900;8.208;2024-01-07T02:00:38;5.20;99.90
18456;DHT22;9357;49.900;8.208;2024-01-07T02:02:10;5.20;99.90
18456;DHT22;9357;49.900;8.208;2024-01-07T02:03:43;5.10;99.90
18456;DHT22;9357;49.900;8.208;2024-01-07T02:05:16;5.20;99.90
18456;DHT22;9357;49.900;8.208;2024-01-07T02:06:48;5.20;99.90
18456;DHT22;9357;49.900;8.208;2024-01-07T02:08:22;5.20;99.90
18456;DHT22;9357;49.900;8.208;2024-01-07T02:09:54;5.20;99.90
18456;DHT22;9357;49.900;8.208;2024-01-07T02:11:27;5.20;99.90
18456;DHT22;9357;49.900;8.208;2024-01-07T02:12:59;5.20;99.90
18456;DHT22;9357;49.900;8.208;2024-01-07T02:14:32;5.10;99.90
18456;DHT22;9357;49.900;8.208;2024-01-07T02:16:04;5.20;99.90
18456;DHT22;9357;49.900;8.208;2024-01-07T02:17:37;5.20;99.90
18456;DHT22;9357;49.900;8.208;2024-01-07T02:19:10;5.20;99.90
18456;DHT22;9357;49.900;8.208;2024-01-07T02:20:42;5.20;99.90
18456;DHT22;9357;49.900;8.208;2024-01-07T02:22:14;5.20;99.90
18456;DHT22;9357;49.900;8.208;2024-01-07T02:23:48;5.20;99.90
18456;DHT22;9357;49.900;8.208;2024-01-07T02:25:22;5.20;99.90
18456;DHT22;9357;49.900;8.208;2024-01-07T02:26:53;5.20;99.90
18456;DHT22;9357;49.900;8.208;2024-01-07T02:28:26;5.20;99.90
18456;DHT22;9357;49.900;8.208;2024-01-07T02:29:58;5.20;99.90
18456;DHT22;9357;49.900;8.208;2024-01-07T02:31:31;5.30;99.90
18456;DHT22;9357;49.900;8.208;2024-01-07T02:33:03;5.30;99.90
18456;DHT22;9357;49.900;8.208;2024-01-07T02:34:36;5.30;99.90
18456;DHT22;9357;49.900;8.208;2024-01-07T02:36:08;5.20;99.90
18456;DHT22;9357;49.900;8.208;2024-01-07T02:37:41;5.20;99.90
18456;DHT22;9357;49.900;8.208;2024-01-07T02:39:12;5.20;99.90
18456;DHT22;9357;49.900;8.208;2024-01-07T02:40:47;5.20;99.90
18456;DHT22;9357;49.900;8.208;2024-01-07T02:42:18;5.20;99.90
18456;DHT22;9357;49.900;8.208;2024-01-07T02:43:51;5.20;99.90
18456;DHT22;9357;49.900;8.208;2024-01-07T02:45:23;5.20;99.90
18456;DHT22;9357;49.900;8.208;2024-01-07T02:46:56;5.20;99.90
18456;DHT22;9357;49.900;8.208;2024-01-07T02:48:28;5.20;99.90
18456;DHT22;9357;49.900;8.208;2024-01-07T02:50:00;5.20;99.90
18456;DHT22;9357;49.900;8.208;2024-01-07T02:51:33;5.20;99.90
18456;DHT22;9357;49.900;8.208;2024-01-07T02:53:05;5.20;99.90
18456;DHT22;9357;49.900;8.208;2024-01-07T02:54:39;5.20;99.90
18456;DHT22;9357;49.900;8.208;2024-01-07T02:56:12;5.10;99.90
18456;DHT22;9357;49.900;8.208;2024-01-07T02:57:45;5.10;99.90
18456;DHT22;9357;49.900;8.208;2024-01-07T02:59:16;5.10;99.90
18456;DHT22;9357;49.900;8.208;2024-01-07T03:00:49;5.10;99.90
18456;DHT22;9357;49.900;8.208;2024-01-07T03:02:21;5.10;99.90
18456;DHT22;9357;49.900;8.208;2024-01-07T03:03:54;5.10;99.90
18456;DHT22;9357;49.900;8.208;2024-01-07T03:05:26;5.10;99.90
18456;DHT22;9357;49.900;8.208;2024-01-07T03:07:00;5.10;99.90
18456;DHT22;9357;49.900;8.208;2024-01-07T03:08:32;5.10;99.90
18456;DHT22;9357;49.900;8.208;2024-01-07T03:10:06;5.00;99.90
18456;DHT22;9357;49.900;8.208;2024-01-07T03:11:40;5.10;99.90
18456;DHT22;9357;49.900;8.208;2024-01-07T03:13:13;5.10;99.90
18456;DHT22;9357;49.900;8.208;2024-01-07T03:14:45;5.10;99.90
18456;DHT22;9357;49.900;8.208;2024-01-07T03:16:21;5.00;99.90
18456;DHT22;9357;49.900;8.208;2024-01-07T03:17:54;5.00;99.90
18456;DHT22;9357;49.900;8.208;2024-01-07T03:19:26;5.10;99.90
18456;DHT22;9357;49.900;8.208;2024-01-07T03:20:58;5.00;99.90
18456;DHT22;9357;49.900;8.208;2024-01-07T03:22:30;5.00;99.90
18456;DHT22;9357;49.900;8.208;2024-01-07T03:24:03;5.10;99.90
18456;DHT22;9357;49.900;8.208;2024-01-07T03:25:35;5.00;99.90
18456;DHT22;9357;49.900;8.208;2024-01-07T03:27:09;5.00;99.90
18456;DHT22;9357;49.900;8.208;2024-01-07T03:28:41;5.00;99.90
18456;DHT22;9357;49.900;8.208;2024-01-07T03:30:14;4.90;99.90
18456;DHT22;9357;49.900;8.208;2024-01-07T03:31:46;5.00;99.90
18456;DHT22;9357;49.900;8.208;2024-01-07T03:33:19;5.00;99.90
18456;DHT22;9357;49.900;8.208;2024-01-07T03:34:50;5.00;99.90
18456;DHT22;9357;49.900;8.208;2024-01-07T03:36:23;5.00;99.90
18456;DHT22;9357;49.900;8.208;2024-01-07T03:37:55;5.00;99.90
18456;DHT22;9357;49.900;8.208;2024-01-07T03:39:28;5.00;99.90
18456;DHT22;9357;49.900;8.208;2024-01-07T03:41:00;5.00;99.90
18456;DHT22;9357;49.900;8.208;2024-01-07T03:42:34;4.90;99.90
18456;DHT22;9357;49.900;8.208;2024-01-07T03:44:05;5.00;99.90
18456;DHT22;9357;49.900;8.208;2024-01-07T03:45:38;5.00;99.90
18456;DHT22;9357;49.900;8.208;2024-01-07T03:47:11;5.00;99.90
18456;DHT22;9357;49.900;8.208;2024-01-07T03:48:44;5.00;99.90
18456;DHT22;9357;49.900;8.208;2024-01-07T03:50:17;5.00;99.90
18456;DHT22;9357;49.900;8.208;2024-01-07T03:51:48;5.00;99.90
18456;DHT22;9357;49.900;8.208;2024-01-07T03:53:21;5.00;99.90
18456;DHT22;9357;49.900;8.208;2024-01-07T03:54:53;5.00;99.90
18456;DHT22;9357;49.900;8.208;2024-01-07T03:56:26;5.00;99.90
18456;DHT22;9357;49.900;8.208;2024-01-07T03:57:59;4.90;99.90
18456;DHT22;9357;49.900;8.208;2024-01-07T03:59:32;4.90;99.90
18456;DHT22;9357;49.900;8.208;2024-01-07T04:01:03;4.90;99.90
18456;DHT22;9357;49.900;8.208;2024-01-07T04:02:36;4.90;99.90
18456;DHT22;9357;49.900;8.208;2024-01-07T04:04:09;4.90;99.90
18456;DHT22;9357;49.900;8.208;2024-01-07T04:05:41;4.90;99.90
18456;DHT22;9357;49.900;8.208;2024-01-07T04:07:16;4.80;99.90
18456;DHT22;9357;49.900;8.208;2024-01-07T04:08:48;4.90;99.90
18456;DHT22;9357;49.900;8.208;2024-01-07T04:10:21;4.80;99.90
18456;DHT22;9357;49.900;8.208;2024-01-07T04:11:52;4.80;99.90
18456;DHT22;9357;49.900;8.208;2024-01-07T04:13:26;4.80;99.90
18456;DHT22;9357;49.900;8.208;2024-01-07T04:14:59;4.70;99.90
18456;DHT22;9357;49.900;8.208;2024-01-07T04:16:31;4.70;99.90
18456;DHT22;9357;49.900;8.208;2024-01-07T04:18:04;4.70;99.90
18456;DHT22;9357;49.900;8.208;2024-01-07T04:19:36;4.70;99.90
18456;DHT22;9357;49.900;8.208;2024-01-07T04:21:10;4.70;99.90
18456;DHT22;9357;49.900;8.208;2024-01-07T04:22:41;4.70;99.90
18456;DHT22;9357;49.900;8.208;2024-01-07T04:24:14;4.70;99.90
18456;DHT22;9357;49.900;8.208;2024-01-07T04:25:46;4.60;99.90
18456;DHT22;9357;49.900;8.208;2024-01-07T04:27:19;4.60;99.90
18456;DHT22;9357;49.900;8.208;2024-01-07T04:28:52;4.60;99.90
18456;DHT22;9357;49.900;8.208;2024-01-07T04:30:24;4.60;99.90
18456;DHT22;9357;49.900;8.208;2024-01-07T04:31:56;4.60;99.90
18456;DHT22;9357;49.900;8.208;2024-01-07T04:33:29;4.60;99.90
18456;DHT22;9357;49.900;8.208;2024-01-07T04:35:01;4.50;99.90
18456;DHT22;9357;49.900;8.208;2024-01-07T04:36:34;4.60;99.90
18456;DHT22;9357;49.900;8.208;2024-01-07T04:38:07;4.60;99.90
18456;DHT22;9357;49.900;8.208;2024-01-07T04:39:40;4.60;99.90
18456;DHT22;9357;49.900;8.208;2024-01-07T04:41:12;4.60;99.90
18456;DHT22;9357;49.900;8.208;2024-01-07T04:42:45;4.60;99.90
18456;DHT22;9357;49.900;8.208;2024-01-07T04:44:18;4.50;99.90
18456;DHT22;9357;49.900;8.208;2024-01-07T04:45:51;4.60;99.90
18456;DHT22;9357;49.900;8.208;2024-01-07T04:47:27;4.50;99.90
18456;DHT22;9357;49.900;8.208;2024-01-07T04:49:01;4.50;99.90
18456;DHT22;9357;49.900;8.208;2024-01-07T04:50:33;4.50;99.90
18456;DHT22;9357;49.900;8.208;2024-01-07T04:52:06;4.50;99.90
18456;DHT22;9357;49.900;8.208;2024-01-07T04:53:37;4.50;99.90
18456;DHT22;9357;49.900;8.208;2024-01-07T04:55:10;4.50;99.90
18456;DHT22;9357;49.900;8.208;2024-01-07T04:56:42;4.50;99.90
18456;DHT22;9357;49.900;8.208;2024-01-07T04:58:15;4.50;99.90
18456;DHT22;9357;49.900;8.208;2024-01-07T04:59:49;4.50;99.90
18456;DHT22;9357;49.900;8.208;2024-01-07T05:01:21;4.50;99.90
18456;DHT22;9357;49.900;8.208;2024-01-07T05:02:54;4.60;99.90
18456;DHT22;9357;49.900;8.208;2024-01-07T05:04:27;4.60;99.90
18456;DHT22;9357;49.900;8.208;2024-01-07T05:05:59;4.50;99.90
18456;DHT22;9357;49.900;8.208;2024-01-07T05:07:31;4.50;99.90
18456;DHT22;9357;49.900;8.208;2024-01-07T05:09:04;4.50;99.90
18456;DHT22;9357;49.900;8.208;2024-01-07T05:10:36;4.50;99.90
18456;DHT22;9357;49.900;8.208;2024-01-07T05:12:08;4.50;99.90
18456;DHT22;9357;49.900;8.208;2024-01-07T05:13:40;4.50;99.90
18456;DHT22;9357;49.900;8.208;2024-01-07T05:15:14;4.50;99.90
18456;DHT22;9357;49.900;8.208;2024-01-07T05:16:46;4.50;99.90
18456;DHT22;9357;49.900;8.208;2024-01-07T05:18:20;4.50;99.90
18456;DHT22;9357;49.900;8.208;2024-01-07T05:19:52;4.50;99.90
18456;DHT22;9357;49.900;8.208;2024-01-07T05:21:25;4.60;99.90
18456;DHT22;9357;49.900;8.208;2024-01-07T05:22:56;4.60;99.90
18456;DHT22;9357;49.900;8.208;2024-01-07T05:24:29;4.60;99.90
18456;DHT22;9357;49.900;8.208;2024-01-07T05:26:04;4.60;99.90
18456;DHT22;9357;49.900;8.208;2024-01-07T05:27:37;4.50;99.90
18456;DHT22;9357;49.900;8.208;2024-01-07T05:29:09;4.60;99.90
18456;DHT22;9357;49.900;8.208;2024-01-07T05:30:44;4.60;99.90
18456;DHT22;9357;49.900;8.208;2024-01-07T05:32:16;4.60;99.90
18456;DHT22;9357;49.900;8.208;2024-01-07T05:33:49;4.60;99.90
18456;DHT22;9357;49.900;8.208;2024-01-07T05:35:21;4.60;99.90
18456;DHT22;9357;49.900;8.208;2024-01-07T05:36:53;4.60;99.90
18456;DHT22;9357;49.900;8.208;2024-01-07T05:38:25;4.60;99.90
18456;DHT22;9357;49.900;8.208;2024-01-07T05:40:01;4.60;99.90
18456;DHT22;9357;49.900;8.208;2024-01-07T05:41:36;4.60;99.90
18456;DHT22;9357;49.900;8.208;2024-01-07T05:43:09;4.60;99.90
18456;DHT22;9357;49.900;8.208;2024-01-07T05:44:41;4.50;99.90
18456;DHT22;9357;49.900;8.208;2024-01-07T05:46:15;4.50;99.90
18456;DHT22;9357;49.900;8.208;2024-01-07T05:47:48;4.50;99.90
18456;DHT22;9357;49.900;8.208;2024-01-07T05:49:21;4.50;99.90
18456;DHT22;9357;49.900;8.208;2024-01-07T05:50:53;4.50;99.90
18456;DHT22;9357;49.900;8.208;2024-01-07T05:52:25;4.50;99.90
18456;DHT22;9357;49.900;8.208;2024-01-07T05:53:57;4.50;99.90
18456;DHT22;9357;49.900;8.208;2024-01-07T05:55:30;4.60;99.90
18456;DHT22;9357;49.900;8.208;2024-01-07T05:57:02;4.50;99.90
18456;DHT22;9357;49.900;8.208;2024-01-07T05:58:35;4.50;99.90
18456;DHT22;9357;49.900;8.208;2024-01-07T06:00:08;4.50;99.90
18456;DHT22;9357;49.900;8.208;2024-01-07T06:01:43;4.50;99.90
18456;DHT22;9357;49.900;8.208;2024-01-07T06:03:15;4.50;99.90
18456;DHT22;9357;49.900;8.208;2024-01-07T06:04:48;4.50;99.90
18456;DHT22;9357;49.900;8.208;2024-01-07T06:06:20;4.60;99.90
18456;DHT22;9357;49.900;8.208;2024-01-07T06:07:53;4.60;99.90
18456;DHT22;9357;49.900;8.208;2024-01-07T06:09:25;4.60;99.90
18456;DHT22;9357;49.900;8.208;2024-01-07T06:10:58;4.60;99.90
18456;DHT22;9357;49.900;8.208;2024-01-07T06:12:30;4.60;99.90
18456;DHT22;9357;49.900;8.208;2024-01-07T06:14:02;4.60;99.90
18456;DHT22;9357;49.900;8.208;2024-01-07T06:15:34;4.60;99.90
18456;DHT22;9357;49.900;8.208;2024-01-07T06:17:08;4.60;99.90
18456;DHT22;9357;49.900;8.208;2024-01-07T06:18:40;4.60;99.90
18456;DHT22;9357;49.900;8.208;2024-01-07T06:20:13;4.60;99.90
18456;DHT22;9357;49.900;8.208;2024-01-07T06:21:45;4.60;99.90
18456;DHT22;9357;49.900;8.208;2024-01-07T06:23:18;4.60;99.90
18456;DHT22;9357;49.900;8.208;2024-01-07T06:24:51;4.50;99.90
18456;DHT22;9357;49.900;8.208;2024-01-07T06:26:23;4.60;99.90
18456;DHT22;9357;49.900;8.208;2024-01-07T06:27:55;4.60;99.90
18456;DHT22;9357;49.900;8.208;2024-01-07T06:29:27;4.60;99.90
18456;DHT22;9357;49.900;8.208;2024-01-07T06:31:02;4.60;99.90
18456;DHT22;9357;49.900;8.208;2024-01-07T06:32:36;4.60;99.90
18456;DHT22;9357;49.900;8.208;2024-01-07T06:34:08;4.60;99.90
18456;DHT22;9357;49.900;8.208;2024-01-07T06:35:45;4.60;99.90
18456;DHT22;9357;49.900;8.208;2024-01-07T06:37:17;4.60;99.90
18456;DHT22;9357;49.900;8.208;2024-01-07T06:38:49;4.60;99.90
18456;DHT22;9357;49.900;8.208;2024-01-07T06:40:22;4.60;99.90
18456;DHT22;9357;49.900;8.208;2024-01-07T06:41:55;4.70;99.90
18456;DHT22;9357;49.900;8.208;2024-01-07T06:43:27;4.70;99.90
18456;DHT22;9357;49.900;8.208;2024-01-07T06:44:59;4.60;99.90
18456;DHT22;9357;49.900;8.208;2024-01-07T06:46:31;4.70;99.90
18456;DHT22;9357;49.900;8.208;2024-01-07T06:48:07;4.70;99.90
18456;DHT22;9357;49.900;8.208;2024-01-07T06:49:40;4.60;99.90
18456;DHT22;9357;49.900;8.208;2024-01-07T06:51:14;4.70;99.90
18456;DHT22;9357;49.900;8.208;2024-01-07T06:52:45;4.70;99.90
18456;DHT22;9357;49.900;8.208;2024-01-07T06:54:18;4.60;99.90
18456;DHT22;9357;49.900;8.208;2024-01-07T06:55:50;4.70;99.90
18456;DHT22;9357;49.900;8.208;2024-01-07T06:57:22;4.60;99.90
18456;DHT22;9357;49.900;8.208;2024-01-07T06:58:54;4.60;99.90
18456;DHT22;9357;49.900;8.208;2024-01-07T07:00:27;4.60;99.90
18456;DHT22;9357;49.900;8.208;2024-01-07T07:01:59;4.50;99.90
18456;DHT22;9357;49.900;8.208;2024-01-07T07:03:33;4.50;99.90
18456;DHT22;9357;49.900;8.208;2024-01-07T07:05:06;4.50;99.90
18456;DHT22;9357;49.900;8.208;2024-01-07T07:06:40;4.50;99.90
18456;DHT22;9357;49.900;8.208;2024-01-07T07:08:12;4.50;99.90
18456;DHT22;9357;49.900;8.208;2024-01-07T07:09:44;4.50;99.90
18456;DHT22;9357;49.900;8.208;2024-01-07T07:11:17;4.50;99.90
18456;DHT22;9357;49.900;8.208;2024-01-07T07:12:50;4.50;99.90
18456;DHT22;9357;49.900;8.208;2024-01-07T07:14:22;4.50;99.90
18456;DHT22;9357;49.900;8.208;2024-01-07T07:15:55;4.50;99.90
18456;DHT22;9357;49.900;8.208;2024-01-07T07:17:27;4.50;99.90
18456;DHT22;9357;49.900;8.208;2024-01-07T07:19:01;4.50;99.90
18456;DHT22;9357;49.900;8.208;2024-01-07T07:20:33;4.50;99.90
18456;DHT22;9357;49.900;8.208;2024-01-07T07:22:06;4.50;99.90
18456;DHT22;9357;49.900;8.208;2024-01-07T07:23:38;4.50;99.90
18456;DHT22;9357;49.900;8.208;2024-01-07T07:25:11;4.50;99.90
18456;DHT22;9357;49.900;8.208;2024-01-07T07:26:43;4.50;99.90
18456;DHT22;9357;49.900;8.208;2024-01-07T07:28:15;4.50;99.90
18456;DHT22;9357;49.900;8.208;2024-01-07T07:29:49;4.50;99.90
18456;DHT22;9357;49.900;8.208;2024-01-07T07:31:22;4.40;99.90
18456;DHT22;9357;49.900;8.208;2024-01-07T07:32:53;4.40;99.90
18456;DHT22;9357;49.900;8.208;2024-01-07T07:34:27;4.40;99.90
18456;DHT22;9357;49.900;8.208;2024-01-07T07:35:59;4.40;99.90
18456;DHT22;9357;49.900;8.208;2024-01-07T07:37:32;4.40;99.90
18456;DHT22;9357;49.900;8.208;2024-01-07T07:39:04;4.30;99.90
18456;DHT22;9357;49.900;8.208;2024-01-07T07:40:37;4.40;99.90
18456;DHT22;9357;49.900;8.208;2024-01-07T07:42:09;4.30;99.90
18456;DHT22;9357;49.900;8.208;2024-01-07T07:43:42;4.30;99.90
18456;DHT22;9357;49.900;8.208;2024-01-07T07:45:14;4.30;99.90
18456;DHT22;9357;49.900;8.208;2024-01-07T07:46:46;4.30;99.90
18456;DHT22;9357;49.900;8.208;2024-01-07T07:48:19;4.30;99.90
18456;DHT22;9357;49.900;8.208;2024-01-07T07:49:52;4.30;99.90
18456;DHT22;9357;49.900;8.208;2024-01-07T07:51:25;4.30;99.90
18456;DHT22;9357;49.900;8.208;2024-01-07T07:52:58;4.20;99.90
18456;DHT22;9357;49.900;8.208;2024-01-07T07:54:30;4.20;99.90
18456;DHT22;9357;49.900;8.208;2024-01-07T07:56:06;4.20;99.90
18456;DHT22;9357;49.900;8.208;2024-01-07T07:57:40;4.20;99.90
18456;DHT22;9357;49.900;8.208;2024-01-07T07:59:11;4.10;99.90
18456;DHT22;9357;49.900;8.208;2024-01-07T08:00:44;4.10;99.90
18456;DHT22;9357;49.900;8.208;2024-01-07T08:02:16;4.10;99.90
18456;DHT22;9357;49.900;8.208;2024-01-07T08:03:49;4.10;99.90
18456;DHT22;9357;49.900;8.208;2024-01-07T08:05:22;4.00;99.90
18456;DHT22;9357;49.900;8.208;2024-01-07T08:06:55;4.00;99.90
18456;DHT22;9357;49.900;8.208;2024-01-07T08:08:28;4.00;99.90
18456;DHT22;9357;49.900;8.208;2024-01-07T08:10:01;4.00;99.90
18456;DHT22;9357;49.900;8.208;2024-01-07T08:11:32;4.00;99.90
18456;DHT22;9357;49.900;8.208;2024-01-07T08:13:08;3.90;99.90
18456;DHT22;9357;49.900;8.208;2024-01-07T08:14:41;3.90;99.90
18456;DHT22;9357;49.900;8.208;2024-01-07T08:16:13;3.90;99.90
18456;DHT22;9357;49.900;8.208;2024-01-07T08:17:46;3.90;99.90
18456;DHT22;9357;49.900;8.208;2024-01-07T08:19:18;3.90;99.90
18456;DHT22;9357;49.900;8.208;2024-01-07T08:20:53;3.90;99.90
18456;DHT22;9357;49.900;8.208;2024-01-07T08:22:25;3.90;99.90
18456;DHT22;9357;49.900;8.208;2024-01-07T08:23:58;3.90;99.90
18456;DHT22;9357;49.900;8.208;2024-01-07T08:25:30;3.80;99.90
18456;DHT22;9357;49.900;8.208;2024-01-07T08:27:04;3.80;99.90
18456;DHT22;9357;49.900;8.208;2024-01-07T08:28:36;3.80;99.90
18456;DHT22;9357;49.900;8.208;2024-01-07T08:30:09;3.80;99.90
18456;DHT22;9357;49.900;8.208;2024-01-07T08:31:41;3.70;99.90
18456;DHT22;9357;49.900;8.208;2024-01-07T08:33:14;3.70;99.90
18456;DHT22;9357;49.900;8.208;2024-01-07T08:34:46;3.80;99.90
18456;DHT22;9357;49.900;8.208;2024-01-07T08:36:20;3.70;99.90
18456;DHT22;9357;49.900;8.208;2024-01-07T08:37:53;3.70;99.90
18456;DHT22;9357;49.900;8.208;2024-01-07T08:39:25;3.70;99.90
18456;DHT22;9357;49.900;8.208;2024-01-07T08:41:00;3.70;99.90
18456;DHT22;9357;49.900;8.208;2024-01-07T08:42:32;3.70;99.90
18456;DHT22;9357;49.900;8.208;2024-01-07T08:44:05;3.70;99.90
18456;DHT22;9357;49.900;8.208;2024-01-07T08:45:37;3.70;99.90
18456;DHT22;9357;49.900;8.208;2024-01-07T08:47:10;3.60;99.90
18456;DHT22;9357;49.900;8.208;2024-01-07T08:48:42;3.70;99.90
18456;DHT22;9357;49.900;8.208;2024-01-07T08:50:15;3.70;99.90
18456;DHT22;9357;49.900;8.208;2024-01-07T08:51:48;3.70;99.90
18456;DHT22;9357;49.900;8.208;2024-01-07T08:53:21;3.70;99.90
18456;DHT22;9357;49.900;8.208;2024-01-07T08:54:53;3.70;99.90
18456;DHT22;9357;49.900;8.208;2024-01-07T08:56:26;3.70;99.90
18456;DHT22;9357;49.900;8.208;2024-01-07T08:57:59;3.60;99.90
18456;DHT22;9357;49.900;8.208;2024-01-07T08:59:32;3.60;99.90
18456;DHT22;9357;49.900;8.208;2024-01-07T09:01:04;3.70;99.90
18456;DHT22;9357;49.900;8.208;2024-01-07T09:02:37;3.60;99.90
18456;DHT22;9357;49.900;8.208;2024-01-07T09:04:14;3.70;99.90
18456;DHT22;9357;49.900;8.208;2024-01-07T09:05:49;3.70;99.90
18456;DHT22;9357;49.900;8.208;2024-01-07T09:07:22;3.70;99.90
18456;DHT22;9357;49.900;8.208;2024-01-07T09:08:55;3.70;99.90
18456;DHT22;9357;49.900;8.208;2024-01-07T09:10:27;3.70;99.90
18456;DHT22;9357;49.900;8.208;2024-01-07T09:11:59;3.70;99.90
18456;DHT22;9357;49.900;8.208;2024-01-07T09:13:32;3.70;99.90
18456;DHT22;9357;49.900;8.208;2024-01-07T09:15:05;3.70;99.90
18456;DHT22;9357;49.900;8.208;2024-01-07T09:16:39;3.60;99.90
18456;DHT22;9357;49.900;8.208;2024-01-07T09:18:12;3.60;99.90
18456;DHT22;9357;49.900;8.208;2024-01-07T09:19:44;3.70;99.90
18456;DHT22;9357;49.900;8.208;2024-01-07T09:21:17;3.60;99.90
18456;DHT22;9357;49.900;8.208;2024-01-07T09:22:50;3.60;99.90
18456;DHT22;9357;49.900;8.208;2024-01-07T09:24:22;3.60;99.90
18456;DHT22;9357;49.900;8.208;2024-01-07T09:25:55;3.60;99.90
18456;DHT22;9357;49.900;8.208;2024-01-07T09:27:27;3.60;99.90
18456;DHT22;9357;49.900;8.208;2024-01-07T09:28:59;3.70;99.90
18456;DHT22;9357;49.900;8.208;2024-01-07T09:30:32;3.70;99.90
18456;DHT22;9357;49.900;8.208;2024-01-07T09:32:06;3.60;99.90
18456;DHT22;9357;49.900;8.208;2024-01-07T09:33:38;3.60;99.90
18456;DHT22;9357;49.900;8.208;2024-01-07T09:35:11;3.60;99.90
18456;DHT22;9357;49.900;8.208;2024-01-07T09:36:43;3.60;99.90
18456;DHT22;9357;49.900;8.208;2024-01-07T09:38:17;3.60;99.90
18456;DHT22;9357;49.900;8.208;2024-01-07T09:39:50;3.60;99.90
18456;DHT22;9357;49.900;8.208;2024-01-07T09:41:22;3.70;99.90
18456;DHT22;9357;49.900;8.208;2024-01-07T09:42:55;3.60;99.90
18456;DHT22;9357;49.900;8.208;2024-01-07T09:44:27;3.60;99.90
18456;DHT22;9357;49.900;8.208;2024-01-07T09:46:00;3.60;99.90
18456;DHT22;9357;49.900;8.208;2024-01-07T09:47:32;3.60;99.90
18456;DHT22;9357;49.900;8.208;2024-01-07T09:49:05;3.60;99.90
18456;DHT22;9357;49.900;8.208;2024-01-07T09:50:38;3.60;99.90
18456;DHT22;9357;49.900;8.208;2024-01-07T09:52:11;3.60;99.90
18456;DHT22;9357;49.900;8.208;2024-01-07T09:53:46;3.70;99.90
18456;DHT22;9357;49.900;8.208;2024-01-07T09:55:25;3.70;99.90
18456;DHT22;9357;49.900;8.208;2024-01-07T09:57:00;3.70;99.90
18456;DHT22;9357;49.900;8.208;2024-01-07T09:58:34;3.70;99.90
18456;DHT22;9357;49.900;8.208;2024-01-07T10:00:07;3.70;99.90
18456;DHT22;9357;49.900;8.208;2024-01-07T10:01:40;3.70;99.90
18456;DHT22;9357;49.900;8.208;2024-01-07T10:03:12;3.70;99.90
18456;DHT22;9357;49.900;8.208;2024-01-07T10:04:45;3.70;99.90